MET5691 - Baltimore to Boston

Embraer ERJ-170LR
N920AU
1 hr 15 mins
321 nm
Scheduled - Daily

Bid/PiRep Status

Bid was submitted on Jan 02 2017.

PiRep # 74602: Approved by Sean Doyle on January 4th, 2017 23:10 UTC

Departure

Departing from
Baltimore (BWI)
Departure gate
Scheduled Departure
GMT 1700
Local 1200
METAR KBWI 222354Z 05009KT 8SM OVC005 09/09 A2964 RMK AO2 RAE53 SLP039 P0000 60005 T00940094 10106 20094 53002
TAF KBWI 222328Z 2300/2406 05009KT 5SM -RA OVC006 FM230400 07012G22KT 1 1/2SM -RA OVC003 FM231100 07021G40KT 2SM RA OVC003 FM231700 07017G37KT 1SM RA OVC008 FM240000 05012KT 2SM -SHRA OVC008 FM240400 02008KT 1SM -SHRA OVC008
  • No charts available

Arrival

Arriving at
Boston (BOS)
Arrival gate
Scheduled Arrival
GMT 1815
Local 1315
METAR KBOS 222354Z 06017KT 1 1/2SM -RA OVC013 04/03 A2993 RMK AO2 SFC VIS 7 SLP135 P0000 60004 T00440033 10078 20044 53024
TAF KBOS 222152Z 2222/2324 05015KT 1 1/2SM -RA BR OVC005 FM230500 06011G25KT P6SM OVC015 FM231000 06014G29KT P6SM OVC025 FM231500 07019G36KT P6SM VCSH OVC020

Route Map

Planning Resources

PALEO3,HTO,WOONS1
OOD J42 RBV J222 JFK
SWANN3 DQO DAVYS J42 LAURN J222 JFK J225 NEWES INNDY2 CCC TELLE KENEE WOBUR EMMEL FIX 17
DCT SWANN DCT OOD J42 RBV J222 JFK KRANN3
ODD DAVYS BRAND RBV LAURN SANTT PACER HFD PUT
Route:
OFP Layout:
Units:
Detailed Navlog:
ETOPS Planning:
Plan Stepclimbs:
Runway Analysis:
Include NOTAMS:
FIR NOTAMS:
Flight Maps:

Return Flights

MET762
Airbus A321-232
0515 GMT
MET764
Airbus A321-232
0100 GMT
MET5690
Embraer ERJ-170LR
1115 GMT
MET5692
Embraer ERJ-170LR
1845 GMT
MET5760
Embraer ERJ-170LR
2215 GMT
MET5764
Embraer ERJ-170LR
1500 GMT

Popularity

Hub Current Bids PiReps this month Total PiReps
KMCI 0 0 6
KLAX 0 0 2
KBOS 0 1 1